sensor_id;sensor_type;location;lat;lon;timestamp;P1;durP1;ratioP1;P2;durP2;ratioP2
72464;SDS011;60471;52.150;4.508;2024-03-29T00:01:35;6.60;;;1.55;;
72464;SDS011;60471;52.150;4.508;2024-03-29T00:04:01;9.05;;;1.67;;
72464;SDS011;60471;52.150;4.508;2024-03-29T00:06:27;12.57;;;1.92;;
72464;SDS011;60471;52.150;4.508;2024-03-29T00:08:53;11.68;;;1.90;;
72464;SDS011;60471;52.150;4.508;2024-03-29T00:11:20;7.80;;;1.30;;
72464;SDS011;60471;52.150;4.508;2024-03-29T00:13:46;8.32;;;1.02;;
72464;SDS011;60471;52.150;4.508;2024-03-29T00:16:12;10.18;;;1.75;;
72464;SDS011;60471;52.150;4.508;2024-03-29T00:18:38;5.32;;;1.15;;
72464;SDS011;60471;52.150;4.508;2024-03-29T00:21:04;11.65;;;1.40;;
72464;SDS011;60471;52.150;4.508;2024-03-29T00:23:31;13.35;;;1.42;;
72464;SDS011;60471;52.150;4.508;2024-03-29T00:25:57;10.45;;;1.58;;
72464;SDS011;60471;52.150;4.508;2024-03-29T00:28:24;9.18;;;1.60;;
72464;SDS011;60471;52.150;4.508;2024-03-29T00:30:50;5.63;;;1.00;;
72464;SDS011;60471;52.150;4.508;2024-03-29T00:33:16;10.57;;;1.60;;
72464;SDS011;60471;52.150;4.508;2024-03-29T00:35:43;7.50;;;1.23;;
72464;SDS011;60471;52.150;4.508;2024-03-29T00:38:09;9.68;;;1.30;;
72464;SDS011;60471;52.150;4.508;2024-03-29T00:40:35;10.27;;;1.20;;
72464;SDS011;60471;52.150;4.508;2024-03-29T00:43:02;6.22;;;1.10;;
72464;SDS011;60471;52.150;4.508;2024-03-29T00:45:28;6.57;;;1.27;;
72464;SDS011;60471;52.150;4.508;2024-03-29T00:47:54;8.95;;;1.33;;
72464;SDS011;60471;52.150;4.508;2024-03-29T00:50:21;9.68;;;1.30;;
72464;SDS011;60471;52.150;4.508;2024-03-29T00:52:47;8.88;;;1.67;;
72464;SDS011;60471;52.150;4.508;2024-03-29T00:55:14;9.13;;;1.50;;
72464;SDS011;60471;52.150;4.508;2024-03-29T00:57:40;8.57;;;1.55;;
72464;SDS011;60471;52.150;4.508;2024-03-29T01:00:06;8.77;;;1.42;;
72464;SDS011;60471;52.150;4.508;2024-03-29T01:02:35;9.10;;;1.33;;
72464;SDS011;60471;52.150;4.508;2024-03-29T01:05:02;10.23;;;1.30;;
72464;SDS011;60471;52.150;4.508;2024-03-29T01:07:29;10.80;;;1.50;;
72464;SDS011;60471;52.150;4.508;2024-03-29T01:09:55;9.02;;;1.40;;
72464;SDS011;60471;52.150;4.508;2024-03-29T01:12:21;12.20;;;1.55;;
72464;SDS011;60471;52.150;4.508;2024-03-29T01:14:47;4.68;;;1.10;;
72464;SDS011;60471;52.150;4.508;2024-03-29T01:17:14;4.75;;;1.00;;
72464;SDS011;60471;52.150;4.508;2024-03-29T01:19:40;10.48;;;2.05;;
72464;SDS011;60471;52.150;4.508;2024-03-29T01:22:06;7.15;;;1.38;;
72464;SDS011;60471;52.150;4.508;2024-03-29T01:24:33;10.60;;;2.13;;
72464;SDS011;60471;52.150;4.508;2024-03-29T01:27:00;7.75;;;1.40;;
72464;SDS011;60471;52.150;4.508;2024-03-29T01:29:26;6.60;;;1.45;;
72464;SDS011;60471;52.150;4.508;2024-03-29T01:31:53;9.02;;;1.27;;
72464;SDS011;60471;52.150;4.508;2024-03-29T01:34:19;5.28;;;1.63;;
72464;SDS011;60471;52.150;4.508;2024-03-29T01:36:45;8.10;;;1.63;;
72464;SDS011;60471;52.150;4.508;2024-03-29T01:39:12;13.70;;;1.45;;
72464;SDS011;60471;52.150;4.508;2024-03-29T01:41:41;12.10;;;1.52;;
72464;SDS011;60471;52.150;4.508;2024-03-29T01:44:07;6.35;;;1.48;;
72464;SDS011;60471;52.150;4.508;2024-03-29T01:46:34;8.68;;;1.65;;
72464;SDS011;60471;52.150;4.508;2024-03-29T01:49:03;8.55;;;1.30;;
72464;SDS011;60471;52.150;4.508;2024-03-29T01:51:31;8.05;;;1.58;;
72464;SDS011;60471;52.150;4.508;2024-03-29T01:54:03;9.63;;;1.30;;
72464;SDS011;60471;52.150;4.508;2024-03-29T01:56:30;6.88;;;1.20;;
72464;SDS011;60471;52.150;4.508;2024-03-29T01:58:58;10.85;;;1.50;;
72464;SDS011;60471;52.150;4.508;2024-03-29T02:01:26;8.88;;;1.67;;
72464;SDS011;60471;52.150;4.508;2024-03-29T02:03:53;12.88;;;1.98;;
72464;SDS011;60471;52.150;4.508;2024-03-29T02:06:21;10.93;;;1.65;;
72464;SDS011;60471;52.150;4.508;2024-03-29T02:08:49;8.00;;;2.15;;
72464;SDS011;60471;52.150;4.508;2024-03-29T02:11:19;6.28;;;1.30;;
72464;SDS011;60471;52.150;4.508;2024-03-29T02:13:46;10.23;;;2.03;;
72464;SDS011;60471;52.150;4.508;2024-03-29T02:16:15;11.90;;;1.30;;
72464;SDS011;60471;52.150;4.508;2024-03-29T02:18:41;10.27;;;2.03;;
72464;SDS011;60471;52.150;4.508;2024-03-29T02:21:08;8.57;;;1.50;;
72464;SDS011;60471;52.150;4.508;2024-03-29T02:23:36;7.85;;;2.15;;
72464;SDS011;60471;52.150;4.508;2024-03-29T02:26:08;7.75;;;1.23;;
72464;SDS011;60471;52.150;4.508;2024-03-29T02:28:36;9.88;;;1.48;;
72464;SDS011;60471;52.150;4.508;2024-03-29T02:31:02;14.50;;;1.88;;
72464;SDS011;60471;52.150;4.508;2024-03-29T02:33:29;9.73;;;1.45;;
72464;SDS011;60471;52.150;4.508;2024-03-29T02:35:56;6.03;;;1.30;;
72464;SDS011;60471;52.150;4.508;2024-03-29T02:38:22;8.05;;;1.75;;
72464;SDS011;60471;52.150;4.508;2024-03-29T02:40:48;10.30;;;1.50;;
72464;SDS011;60471;52.150;4.508;2024-03-29T02:43:15;8.70;;;1.30;;
72464;SDS011;60471;52.150;4.508;2024-03-29T02:45:41;10.32;;;1.70;;
72464;SDS011;60471;52.150;4.508;2024-03-29T02:48:07;7.63;;;1.27;;
72464;SDS011;60471;52.150;4.508;2024-03-29T02:50:33;5.82;;;1.40;;
72464;SDS011;60471;52.150;4.508;2024-03-29T02:53:00;9.02;;;1.27;;
72464;SDS011;60471;52.150;4.508;2024-03-29T02:55:26;8.30;;;1.20;;
72464;SDS011;60471;52.150;4.508;2024-03-29T02:57:52;8.43;;;1.33;;
72464;SDS011;60471;52.150;4.508;2024-03-29T03:00:18;11.45;;;2.05;;
72464;SDS011;60471;52.150;4.508;2024-03-29T03:02:44;11.63;;;1.80;;
72464;SDS011;60471;52.150;4.508;2024-03-29T03:05:11;9.57;;;1.67;;
72464;SDS011;60471;52.150;4.508;2024-03-29T03:07:37;5.68;;;0.98;;
72464;SDS011;60471;52.150;4.508;2024-03-29T03:10:22;10.23;;;1.63;;
72464;SDS011;60471;52.150;4.508;2024-03-29T03:13:06;6.35;;;1.83;;
72464;SDS011;60471;52.150;4.508;2024-03-29T03:15:33;6.85;;;1.33;;
72464;SDS011;60471;52.150;4.508;2024-03-29T03:17:59;4.70;;;1.20;;
72464;SDS011;60471;52.150;4.508;2024-03-29T03:20:25;7.68;;;1.38;;
72464;SDS011;60471;52.150;4.508;2024-03-29T03:22:56;8.88;;;1.45;;
72464;SDS011;60471;52.150;4.508;2024-03-29T03:25:24;12.18;;;2.33;;
72464;SDS011;60471;52.150;4.508;2024-03-29T03:27:52;11.85;;;1.30;;
72464;SDS011;60471;52.150;4.508;2024-03-29T03:30:19;6.07;;;1.23;;
72464;SDS011;60471;52.150;4.508;2024-03-29T03:32:45;6.65;;;1.13;;
72464;SDS011;60471;52.150;4.508;2024-03-29T03:35:12;11.13;;;1.52;;
72464;SDS011;60471;52.150;4.508;2024-03-29T03:37:38;4.30;;;0.95;;
72464;SDS011;60471;52.150;4.508;2024-03-29T03:40:04;5.13;;;1.52;;
72464;SDS011;60471;52.150;4.508;2024-03-29T03:42:32;7.50;;;1.17;;
72464;SDS011;60471;52.150;4.508;2024-03-29T03:44:58;5.18;;;1.48;;
72464;SDS011;60471;52.150;4.508;2024-03-29T03:47:25;4.25;;;0.80;;
72464;SDS011;60471;52.150;4.508;2024-03-29T03:49:51;5.45;;;1.00;;
72464;SDS011;60471;52.150;4.508;2024-03-29T03:52:17;4.65;;;0.95;;
72464;SDS011;60471;52.150;4.508;2024-03-29T03:54:43;5.53;;;1.15;;
72464;SDS011;60471;52.150;4.508;2024-03-29T03:57:10;4.78;;;0.77;;
72464;SDS011;60471;52.150;4.508;2024-03-29T03:59:36;3.33;;;1.00;;
72464;SDS011;60471;52.150;4.508;2024-03-29T04:02:02;5.72;;;1.10;;
72464;SDS011;60471;52.150;4.508;2024-03-29T04:04:29;1.58;;;0.70;;
72464;SDS011;60471;52.150;4.508;2024-03-29T04:06:55;3.13;;;0.80;;
72464;SDS011;60471;52.150;4.508;2024-03-29T04:09:21;4.75;;;1.02;;
72464;SDS011;60471;52.150;4.508;2024-03-29T04:11:47;7.72;;;1.08;;
72464;SDS011;60471;52.150;4.508;2024-03-29T04:14:13;2.15;;;0.70;;
72464;SDS011;60471;52.150;4.508;2024-03-29T04:16:40;2.95;;;0.90;;
72464;SDS011;60471;52.150;4.508;2024-03-29T04:19:06;4.00;;;1.05;;
72464;SDS011;60471;52.150;4.508;2024-03-29T04:21:32;6.13;;;0.98;;
72464;SDS011;60471;52.150;4.508;2024-03-29T04:23:59;4.95;;;0.80;;
72464;SDS011;60471;52.150;4.508;2024-03-29T04:26:25;6.85;;;0.80;;
72464;SDS011;60471;52.150;4.508;2024-03-29T04:28:51;2.97;;;0.90;;
72464;SDS011;60471;52.150;4.508;2024-03-29T04:31:18;3.63;;;1.00;;
72464;SDS011;60471;52.150;4.508;2024-03-29T04:33:44;4.43;;;0.80;;
72464;SDS011;60471;52.150;4.508;2024-03-29T04:36:11;3.28;;;1.05;;
72464;SDS011;60471;52.150;4.508;2024-03-29T04:38:37;1.67;;;0.80;;
72464;SDS011;60471;52.150;4.508;2024-03-29T04:41:03;1.77;;;0.70;;
72464;SDS011;60471;52.150;4.508;2024-03-29T04:43:29;1.52;;;0.75;;
72464;SDS011;60471;52.150;4.508;2024-03-29T04:46:09;2.25;;;0.77;;
72464;SDS011;60471;52.150;4.508;2024-03-29T04:48:38;5.18;;;1.02;;
72464;SDS011;60471;52.150;4.508;2024-03-29T04:51:09;2.78;;;0.80;;
72464;SDS011;60471;52.150;4.508;2024-03-29T04:53:36;3.13;;;0.80;;
72464;SDS011;60471;52.150;4.508;2024-03-29T04:56:04;4.10;;;1.15;;
72464;SDS011;60471;52.150;4.508;2024-03-29T04:58:31;2.30;;;0.73;;
72464;SDS011;60471;52.150;4.508;2024-03-29T05:00:58;4.05;;;0.80;;
72464;SDS011;60471;52.150;4.508;2024-03-29T05:03:24;4.60;;;0.80;;
72464;SDS011;60471;52.150;4.508;2024-03-29T05:05:51;4.03;;;0.73;;
72464;SDS011;60471;52.150;4.508;2024-03-29T05:08:19;2.88;;;0.70;;
72464;SDS011;60471;52.150;4.508;2024-03-29T05:10:51;4.55;;;1.00;;
72464;SDS011;60471;52.150;4.508;2024-03-29T05:13:18;1.98;;;0.80;;
72464;SDS011;60471;52.150;4.508;2024-03-29T05:15:47;4.22;;;0.80;;
72464;SDS011;60471;52.150;4.508;2024-03-29T05:18:14;4.72;;;0.90;;
72464;SDS011;60471;52.150;4.508;2024-03-29T05:20:40;3.85;;;0.90;;
72464;SDS011;60471;52.150;4.508;2024-03-29T05:23:13;3.08;;;0.75;;
72464;SDS011;60471;52.150;4.508;2024-03-29T05:25:40;3.83;;;1.08;;
72464;SDS011;60471;52.150;4.508;2024-03-29T05:28:08;2.47;;;0.82;;
72464;SDS011;60471;52.150;4.508;2024-03-29T05:30:36;2.45;;;0.80;;
72464;SDS011;60471;52.150;4.508;2024-03-29T05:33:03;2.55;;;0.77;;
72464;SDS011;60471;52.150;4.508;2024-03-29T05:35:30;2.22;;;0.85;;
72464;SDS011;60471;52.150;4.508;2024-03-29T05:37:56;2.33;;;0.80;;
72464;SDS011;60471;52.150;4.508;2024-03-29T05:40:24;2.13;;;0.70;;
72464;SDS011;60471;52.150;4.508;2024-03-29T05:42:53;3.92;;;1.00;;
72464;SDS011;60471;52.150;4.508;2024-03-29T05:47:54;3.10;;;0.90;;
72464;SDS011;60471;52.150;4.508;2024-03-29T05:50:23;4.32;;;0.80;;
72464;SDS011;60471;52.150;4.508;2024-03-29T05:52:53;3.15;;;0.82;;
72464;SDS011;60471;52.150;4.508;2024-03-29T05:55:20;2.92;;;0.93;;
72464;SDS011;60471;52.150;4.508;2024-03-29T05:57:46;2.38;;;0.85;;
72464;SDS011;60471;52.150;4.508;2024-03-29T06:00:14;5.13;;;0.90;;
72464;SDS011;60471;52.150;4.508;2024-03-29T06:02:41;2.92;;;0.90;;
72464;SDS011;60471;52.150;4.508;2024-03-29T06:05:10;6.25;;;1.00;;
72464;SDS011;60471;52.150;4.508;2024-03-29T06:07:37;4.35;;;1.27;;
72464;SDS011;60471;52.150;4.508;2024-03-29T06:10:03;4.57;;;1.15;;
72464;SDS011;60471;52.150;4.508;2024-03-29T06:12:33;5.82;;;1.00;;
72464;SDS011;60471;52.150;4.508;2024-03-29T06:15:00;2.15;;;0.80;;
72464;SDS011;60471;52.150;4.508;2024-03-29T06:17:45;4.65;;;1.17;;
72464;SDS011;60471;52.150;4.508;2024-03-29T06:20:12;2.55;;;0.70;;
72464;SDS011;60471;52.150;4.508;2024-03-29T06:22:38;2.88;;;1.00;;
72464;SDS011;60471;52.150;4.508;2024-03-29T06:25:04;2.38;;;0.95;;
72464;SDS011;60471;52.150;4.508;2024-03-29T06:27:32;4.20;;;0.98;;
72464;SDS011;60471;52.150;4.508;2024-03-29T06:29:59;1.60;;;0.70;;
72464;SDS011;60471;52.150;4.508;2024-03-29T06:32:26;1.90;;;0.77;;
72464;SDS011;60471;52.150;4.508;2024-03-29T06:34:52;2.97;;;0.80;;
72464;SDS011;60471;52.150;4.508;2024-03-29T06:37:19;3.72;;;1.17;;
72464;SDS011;60471;52.150;4.508;2024-03-29T06:39:51;4.47;;;1.20;;
72464;SDS011;60471;52.150;4.508;2024-03-29T06:42:17;2.78;;;0.80;;
72464;SDS011;60471;52.150;4.508;2024-03-29T06:44:44;2.40;;;0.80;;
72464;SDS011;60471;52.150;4.508;2024-03-29T06:47:10;4.88;;;1.00;;
72464;SDS011;60471;52.150;4.508;2024-03-29T06:49:37;3.70;;;0.85;;
72464;SDS011;60471;52.150;4.508;2024-03-29T06:52:03;4.30;;;0.90;;
72464;SDS011;60471;52.150;4.508;2024-03-29T06:54:30;4.47;;;1.00;;
72464;SDS011;60471;52.150;4.508;2024-03-29T06:56:58;2.63;;;0.90;;
72464;SDS011;60471;52.150;4.508;2024-03-29T06:59:26;1.75;;;0.75;;
72464;SDS011;60471;52.150;4.508;2024-03-29T07:01:54;3.08;;;0.90;;
72464;SDS011;60471;52.150;4.508;2024-03-29T07:04:22;5.00;;;1.17;;
72464;SDS011;60471;52.150;4.508;2024-03-29T07:06:53;5.30;;;1.02;;
72464;SDS011;60471;52.150;4.508;2024-03-29T07:09:20;2.78;;;0.98;;
72464;SDS011;60471;52.150;4.508;2024-03-29T07:11:48;3.35;;;1.00;;
72464;SDS011;60471;52.150;4.508;2024-03-29T07:14:17;2.72;;;0.95;;
72464;SDS011;60471;52.150;4.508;2024-03-29T07:16:45;4.93;;;1.00;;
72464;SDS011;60471;52.150;4.508;2024-03-29T07:19:12;4.70;;;1.20;;
72464;SDS011;60471;52.150;4.508;2024-03-29T07:21:44;4.25;;;0.90;;
72464;SDS011;60471;52.150;4.508;2024-03-29T07:24:12;2.78;;;0.90;;
72464;SDS011;60471;52.150;4.508;2024-03-29T07:26:39;2.55;;;0.85;;
72464;SDS011;60471;52.150;4.508;2024-03-29T07:29:05;7.00;;;1.20;;
72464;SDS011;60471;52.150;4.508;2024-03-29T07:31:32;4.60;;;1.10;;
72464;SDS011;60471;52.150;4.508;2024-03-29T07:34:00;5.07;;;1.17;;
72464;SDS011;60471;52.150;4.508;2024-03-29T07:36:26;6.82;;;1.17;;
72464;SDS011;60471;52.150;4.508;2024-03-29T07:39:00;5.25;;;0.90;;
72464;SDS011;60471;52.150;4.508;2024-03-29T07:41:27;4.38;;;0.98;;
72464;SDS011;60471;52.150;4.508;2024-03-29T07:43:54;3.50;;;1.30;;
72464;SDS011;60471;52.150;4.508;2024-03-29T07:46:34;3.17;;;0.98;;
72464;SDS011;60471;52.150;4.508;2024-03-29T07:49:03;5.95;;;1.27;;
72464;SDS011;60471;52.150;4.508;2024-03-29T07:51:29;3.60;;;1.00;;
72464;SDS011;60471;52.150;4.508;2024-03-29T07:53:56;3.55;;;0.93;;
72464;SDS011;60471;52.150;4.508;2024-03-29T07:56:22;3.25;;;1.10;;
72464;SDS011;60471;52.150;4.508;2024-03-29T07:58:51;3.88;;;0.98;;
72464;SDS011;60471;52.150;4.508;2024-03-29T08:01:19;4.72;;;1.02;;
72464;SDS011;60471;52.150;4.508;2024-03-29T08:03:51;3.60;;;1.05;;
72464;SDS011;60471;52.150;4.508;2024-03-29T08:06:21;4.30;;;1.30;;
72464;SDS011;60471;52.150;4.508;2024-03-29T08:08:49;6.88;;;1.17;;
72464;SDS011;60471;52.150;4.508;2024-03-29T08:11:16;5.18;;;1.50;;
72464;SDS011;60471;52.150;4.508;2024-03-29T08:13:43;4.55;;;1.08;;
72464;SDS011;60471;52.150;4.508;2024-03-29T08:16:09;3.63;;;1.10;;
72464;SDS011;60471;52.150;4.508;2024-03-29T08:18:36;5.38;;;1.38;;
72464;SDS011;60471;52.150;4.508;2024-03-29T08:21:03;4.20;;;1.00;;
72464;SDS011;60471;52.150;4.508;2024-03-29T08:23:31;4.07;;;1.23;;
72464;SDS011;60471;52.150;4.508;2024-03-29T08:25:57;5.75;;;1.30;;
72464;SDS011;60471;52.150;4.508;2024-03-29T08:28:23;5.03;;;1.73;;
72464;SDS011;60471;52.150;4.508;2024-03-29T08:31:03;4.65;;;1.33;;
72464;SDS011;60471;52.150;4.508;2024-03-29T08:33:32;6.00;;;1.75;;
72464;SDS011;60471;52.150;4.508;2024-03-29T08:35:58;6.45;;;1.80;;
72464;SDS011;60471;52.150;4.508;2024-03-29T08:38:25;3.92;;;1.20;;
72464;SDS011;60471;52.150;4.508;2024-03-29T08:40:51;3.83;;;1.30;;
72464;SDS011;60471;52.150;4.508;2024-03-29T08:43:17;7.03;;;1.75;;
72464;SDS011;60471;52.150;4.508;2024-03-29T08:45:44;6.75;;;1.75;;
72464;SDS011;60471;52.150;4.508;2024-03-29T08:48:11;7.32;;;1.65;;
72464;SDS011;60471;52.150;4.508;2024-03-29T08:50:37;7.53;;;1.90;;
72464;SDS011;60471;52.150;4.508;2024-03-29T08:53:05;6.78;;;1.70;;
72464;SDS011;60471;52.150;4.508;2024-03-29T08:55:32;6.75;;;1.80;;
72464;SDS011;60471;52.150;4.508;2024-03-29T08:58:02;8.63;;;2.08;;
72464;SDS011;60471;52.150;4.508;2024-03-29T09:00:30;8.50;;;2.00;;
72464;SDS011;60471;52.150;4.508;2024-03-29T09:02:57;7.40;;;1.98;;
72464;SDS011;60471;52.150;4.508;2024-03-29T09:05:23;7.82;;;2.08;;
72464;SDS011;60471;52.150;4.508;2024-03-29T09:07:52;5.00;;;1.73;;
72464;SDS011;60471;52.150;4.508;2024-03-29T09:10:19;6.18;;;1.65;;
72464;SDS011;60471;52.150;4.508;2024-03-29T09:12:45;8.45;;;1.85;;
72464;SDS011;60471;52.150;4.508;2024-03-29T09:15:11;7.15;;;1.88;;
72464;SDS011;60471;52.150;4.508;2024-03-29T09:17:45;7.30;;;1.80;;
72464;SDS011;60471;52.150;4.508;2024-03-29T09:20:12;5.05;;;1.38;;
72464;SDS011;60471;52.150;4.508;2024-03-29T09:22:40;4.68;;;1.35;;
72464;SDS011;60471;52.150;4.508;2024-03-29T09:25:06;4.43;;;1.15;;
72464;SDS011;60471;52.150;4.508;2024-03-29T09:27:39;3.88;;;1.15;;
72464;SDS011;60471;52.150;4.508;2024-03-29T09:30:11;6.85;;;1.95;;
72464;SDS011;60471;52.150;4.508;2024-03-29T09:32:38;4.50;;;1.30;;
72464;SDS011;60471;52.150;4.508;2024-03-29T09:35:04;6.35;;;1.55;;
72464;SDS011;60471;52.150;4.508;2024-03-29T09:37:31;8.10;;;1.50;;
72464;SDS011;60471;52.150;4.508;2024-03-29T09:40:04;7.55;;;1.50;;
72464;SDS011;60471;52.150;4.508;2024-03-29T09:42:31;5.90;;;1.10;;
72464;SDS011;60471;52.150;4.508;2024-03-29T09:44:59;3.08;;;0.98;;
72464;SDS011;60471;52.150;4.508;2024-03-29T09:47:32;3.45;;;1.10;;
72464;SDS011;60471;52.150;4.508;2024-03-29T09:49:59;3.08;;;0.90;;
72464;SDS011;60471;52.150;4.508;2024-03-29T09:52:33;3.72;;;1.00;;
72464;SDS011;60471;52.150;4.508;2024-03-29T09:55:00;2.75;;;0.80;;
72464;SDS011;60471;52.150;4.508;2024-03-29T09:57:27;5.18;;;1.13;;
72464;SDS011;60471;52.150;4.508;2024-03-29T09:59:56;0.95;;;0.60;;
72464;SDS011;60471;52.150;4.508;2024-03-29T10:02:27;2.70;;;0.80;;
72464;SDS011;60471;52.150;4.508;2024-03-29T10:04:57;3.70;;;0.88;;
72464;SDS011;60471;52.150;4.508;2024-03-29T10:07:28;2.17;;;0.90;;
72464;SDS011;60471;52.150;4.508;2024-03-29T10:09:57;3.47;;;1.10;;
72464;SDS011;60471;52.150;4.508;2024-03-29T10:12:27;2.35;;;0.93;;
72464;SDS011;60471;52.150;4.508;2024-03-29T10:14:54;2.85;;;0.90;;
72464;SDS011;60471;52.150;4.508;2024-03-29T10:17:31;3.60;;;1.20;;
72464;SDS011;60471;52.150;4.508;2024-03-29T10:20:01;2.90;;;0.85;;
72464;SDS011;60471;52.150;4.508;2024-03-29T10:22:52;2.80;;;1.10;;
72464;SDS011;60471;52.150;4.508;2024-03-29T10:25:17;3.60;;;1.05;;
72464;SDS011;60471;52.150;4.508;2024-03-29T10:27:44;3.65;;;0.90;;
72464;SDS011;60471;52.150;4.508;2024-03-29T10:30:10;6.25;;;1.20;;
72464;SDS011;60471;52.150;4.508;2024-03-29T10:32:42;3.40;;;1.30;;
72464;SDS011;60471;52.150;4.508;2024-03-29T10:35:09;5.72;;;1.40;;
72464;SDS011;60471;52.150;4.508;2024-03-29T10:37:36;9.73;;;1.88;;
72464;SDS011;60471;52.150;4.508;2024-03-29T10:40:09;4.97;;;1.52;;
72464;SDS011;60471;52.150;4.508;2024-03-29T10:42:37;5.45;;;1.40;;
72464;SDS011;60471;52.150;4.508;2024-03-29T10:45:06;6.20;;;1.85;;
72464;SDS011;60471;52.150;4.508;2024-03-29T10:47:33;7.35;;;2.00;;
72464;SDS011;60471;52.150;4.508;2024-03-29T10:50:00;7.00;;;2.05;;
72464;SDS011;60471;52.150;4.508;2024-03-29T10:52:26;6.78;;;1.60;;
72464;SDS011;60471;52.150;4.508;2024-03-29T10:54:53;4.90;;;1.60;;
72464;SDS011;60471;52.150;4.508;2024-03-29T10:57:23;6.93;;;1.80;;
72464;SDS011;60471;52.150;4.508;2024-03-29T11:00:07;4.60;;;1.55;;
72464;SDS011;60471;52.150;4.508;2024-03-29T11:05:44;4.20;;;1.50;;
72464;SDS011;60471;52.150;4.508;2024-03-29T11:08:16;5.90;;;1.50;;
72464;SDS011;60471;52.150;4.508;2024-03-29T11:10:53;5.45;;;1.70;;
72464;SDS011;60471;52.150;4.508;2024-03-29T11:13:29;4.78;;;1.60;;
72464;SDS011;60471;52.150;4.508;2024-03-29T11:16:16;7.10;;;1.70;;
72464;SDS011;60471;52.150;4.508;2024-03-29T11:18:42;6.10;;;1.95;;
72464;SDS011;60471;52.150;4.508;2024-03-29T11:21:10;7.72;;;2.17;;
72464;SDS011;60471;52.150;4.508;2024-03-29T11:23:39;7.10;;;2.22;;
72464;SDS011;60471;52.150;4.508;2024-03-29T11:26:05;9.18;;;2.85;;
72464;SDS011;60471;52.150;4.508;2024-03-29T11:28:33;6.55;;;2.25;;
72464;SDS011;60471;52.150;4.508;2024-03-29T11:31:01;7.10;;;2.30;;
72464;SDS011;60471;52.150;4.508;2024-03-29T11:36:21;9.07;;;2.50;;
72464;SDS011;60471;52.150;4.508;2024-03-29T11:41:31;6.97;;;2.08;;
72464;SDS011;60471;52.150;4.508;2024-03-29T11:43:58;6.03;;;2.05;;
72464;SDS011;60471;52.150;4.508;2024-03-29T11:46:24;7.70;;;2.40;;
72464;SDS011;60471;52.150;4.508;2024-03-29T11:48:51;6.63;;;1.90;;
72464;SDS011;60471;52.150;4.508;2024-03-29T11:51:18;7.82;;;2.20;;
72464;SDS011;60471;52.150;4.508;2024-03-29T11:53:49;9.43;;;2.40;;
72464;SDS011;60471;52.150;4.508;2024-03-29T11:56:19;7.78;;;2.72;;
72464;SDS011;60471;52.150;4.508;2024-03-29T11:58:46;7.82;;;2.30;;
72464;SDS011;60471;52.150;4.508;2024-03-29T12:01:14;10.75;;;2.45;;
72464;SDS011;60471;52.150;4.508;2024-03-29T12:03:42;8.60;;;2.47;;
72464;SDS011;60471;52.150;4.508;2024-03-29T12:06:13;8.25;;;2.45;;
72464;SDS011;60471;52.150;4.508;2024-03-29T12:08:40;7.32;;;2.80;;
72464;SDS011;60471;52.150;4.508;2024-03-29T12:11:08;7.78;;;3.03;;
72464;SDS011;60471;52.150;4.508;2024-03-29T12:13:35;8.52;;;2.70;;
72464;SDS011;60471;52.150;4.508;2024-03-29T12:16:02;8.52;;;3.15;;
72464;SDS011;60471;52.150;4.508;2024-03-29T12:18:31;9.80;;;2.90;;
72464;SDS011;60471;52.150;4.508;2024-03-29T12:20:58;6.90;;;2.58;;
72464;SDS011;60471;52.150;4.508;2024-03-29T12:23:24;8.38;;;2.65;;
72464;SDS011;60471;52.150;4.508;2024-03-29T12:25:52;7.68;;;2.88;;
72464;SDS011;60471;52.150;4.508;2024-03-29T12:28:23;7.10;;;2.50;;
72464;SDS011;60471;52.150;4.508;2024-03-29T12:30:51;9.98;;;2.60;;
72464;SDS011;60471;52.150;4.508;2024-03-29T12:33:19;7.35;;;2.30;;
72464;SDS011;60471;52.150;4.508;2024-03-29T12:35:47;8.43;;;2.33;;
72464;SDS011;60471;52.150;4.508;2024-03-29T12:38:20;8.40;;;2.67;;
72464;SDS011;60471;52.150;4.508;2024-03-29T12:40:48;8.90;;;2.70;;
72464;SDS011;60471;52.150;4.508;2024-03-29T12:43:19;7.65;;;2.90;;
72464;SDS011;60471;52.150;4.508;2024-03-29T12:48:16;8.65;;;3.35;;
72464;SDS011;60471;52.150;4.508;2024-03-29T12:50:45;7.35;;;2.58;;
72464;SDS011;60471;52.150;4.508;2024-03-29T12:53:14;8.43;;;2.63;;
72464;SDS011;60471;52.150;4.508;2024-03-29T12:55:42;7.25;;;2.20;;
72464;SDS011;60471;52.150;4.508;2024-03-29T12:58:14;7.00;;;2.60;;
72464;SDS011;60471;52.150;4.508;2024-03-29T13:00:47;10.25;;;2.35;;
72464;SDS011;60471;52.150;4.508;2024-03-29T13:03:14;7.53;;;2.20;;
72464;SDS011;60471;52.150;4.508;2024-03-29T13:05:42;8.20;;;2.10;;
72464;SDS011;60471;52.150;4.508;2024-03-29T13:08:09;9.95;;;2.30;;
72464;SDS011;60471;52.150;4.508;2024-03-29T13:10:38;8.52;;;1.83;;
72464;SDS011;60471;52.150;4.508;2024-03-29T13:13:05;9.50;;;2.10;;
72464;SDS011;60471;52.150;4.508;2024-03-29T13:15:33;8.85;;;2.00;;
72464;SDS011;60471;52.150;4.508;2024-03-29T13:18:02;7.55;;;2.05;;
72464;SDS011;60471;52.150;4.508;2024-03-29T13:20:30;7.85;;;1.80;;
72464;SDS011;60471;52.150;4.508;2024-03-29T13:22:58;8.68;;;1.73;;
72464;SDS011;60471;52.150;4.508;2024-03-29T13:25:25;11.85;;;2.17;;
72464;SDS011;60471;52.150;4.508;2024-03-29T13:27:52;8.10;;;1.80;;
72464;SDS011;60471;52.150;4.508;2024-03-29T13:30:24;8.15;;;1.80;;
72464;SDS011;60471;52.150;4.508;2024-03-29T13:32:53;7.90;;;1.75;;
72464;SDS011;60471;52.150;4.508;2024-03-29T13:35:20;8.63;;;1.70;;
72464;SDS011;60471;52.150;4.508;2024-03-29T13:37:48;6.75;;;1.70;;
72464;SDS011;60471;52.150;4.508;2024-03-29T13:40:20;8.85;;;1.70;;
72464;SDS011;60471;52.150;4.508;2024-03-29T13:42:50;7.38;;;1.88;;
72464;SDS011;60471;52.150;4.508;2024-03-29T13:45:17;7.00;;;1.50;;
72464;SDS011;60471;52.150;4.508;2024-03-29T13:47:44;9.07;;;1.83;;
72464;SDS011;60471;52.150;4.508;2024-03-29T13:50:13;8.07;;;1.75;;
72464;SDS011;60471;52.150;4.508;2024-03-29T13:52:43;9.73;;;1.33;;
72464;SDS011;60471;52.150;4.508;2024-03-29T13:55:09;8.77;;;1.90;;
72464;SDS011;60471;52.150;4.508;2024-03-29T13:57:36;9.52;;;2.05;;
72464;SDS011;60471;52.150;4.508;2024-03-29T14:00:04;7.28;;;2.10;;
72464;SDS011;60471;52.150;4.508;2024-03-29T14:02:34;8.93;;;2.33;;
72464;SDS011;60471;52.150;4.508;2024-03-29T14:05:00;9.52;;;2.65;;
72464;SDS011;60471;52.150;4.508;2024-03-29T14:07:26;6.05;;;1.58;;
72464;SDS011;60471;52.150;4.508;2024-03-29T14:09:53;9.43;;;2.30;;
72464;SDS011;60471;52.150;4.508;2024-03-29T14:12:20;9.13;;;2.70;;
72464;SDS011;60471;52.150;4.508;2024-03-29T14:14:51;8.23;;;1.83;;
72464;SDS011;60471;52.150;4.508;2024-03-29T14:17:18;10.80;;;2.20;;
72464;SDS011;60471;52.150;4.508;2024-03-29T14:19:45;6.68;;;2.00;;
72464;SDS011;60471;52.150;4.508;2024-03-29T14:22:13;7.13;;;2.13;;
72464;SDS011;60471;52.150;4.508;2024-03-29T14:24:42;8.13;;;2.17;;
72464;SDS011;60471;52.150;4.508;2024-03-29T14:27:08;6.97;;;1.90;;
72464;SDS011;60471;52.150;4.508;2024-03-29T14:29:35;6.75;;;1.90;;
72464;SDS011;60471;52.150;4.508;2024-03-29T14:32:01;6.85;;;1.80;;
72464;SDS011;60471;52.150;4.508;2024-03-29T14:34:29;8.93;;;2.00;;
72464;SDS011;60471;52.150;4.508;2024-03-29T14:36:57;6.82;;;1.73;;
72464;SDS011;60471;52.150;4.508;2024-03-29T14:39:25;6.93;;;1.90;;
72464;SDS011;60471;52.150;4.508;2024-03-29T14:41:52;6.97;;;1.80;;
72464;SDS011;60471;52.150;4.508;2024-03-29T14:44:18;9.35;;;1.80;;
72464;SDS011;60471;52.150;4.508;2024-03-29T14:46:49;6.10;;;1.88;;
72464;SDS011;60471;52.150;4.508;2024-03-29T14:49:15;6.20;;;1.85;;
72464;SDS011;60471;52.150;4.508;2024-03-29T14:51:43;8.02;;;1.80;;
72464;SDS011;60471;52.150;4.508;2024-03-29T14:54:10;8.02;;;1.75;;
72464;SDS011;60471;52.150;4.508;2024-03-29T14:56:37;8.48;;;1.95;;
72464;SDS011;60471;52.150;4.508;2024-03-29T14:59:04;6.57;;;1.60;;
72464;SDS011;60471;52.150;4.508;2024-03-29T15:01:32;7.63;;;1.90;;
72464;SDS011;60471;52.150;4.508;2024-03-29T15:03:58;8.43;;;1.52;;